This is the latest recevied weather packets stored in our database for station/object DG4CB-13. If no packets are shown the sender has not sent any weather packets the latest 10 day(s).
| Time | Temp. | Humidity | Pressure | Rain* | Wind** | Luminosity | Snow |
|---|---|---|---|---|---|---|---|
| 1788616800 | 21.67° C | 45% | 1020.9 hPa | - | - | - | - |
| 1788616200 | 21.11° C | 45% | 1020.9 hPa | - | - | - | - |
| 1788615600 | 21.67° C | 45% | 1020.8 hPa | - | - | - | - |
| 1788615000 | 21.67° C | 45% | 1020.8 hPa | - | - | - | - |
| 1788614401 | 21.67° C | 45% | 1020.7 hPa | - | - | - | - |
| 1788595200 | 16.67° C | 77% | 1019.4 hPa | - | - | - | - |
| 1788594605 | 16.67° C | 79% | 1019 hPa | - | - | - | - |
| 1788594000 | 16.11° C | 80% | 1018.9 hPa | - | - | - | - |
| 1788593400 | 15.56° C | 86% | 1018.9 hPa | - | - | - | - |
| 1788592819 | 15.56° C | 89% | 1018.7 hPa | - | - | - | - |
| 1788592200 | 15° C | 91% | 1018.7 hPa | - | - | - | - |
| 1788591600 | 14.44° C | 92% | 1018.8 hPa | - | - | - | - |
| 1788591000 | 13.89° C | 92% | 1018.7 hPa | - | - | - | - |
| 1788580800 | 13.33° C | 87% | 1016.9 hPa | - | - | - | - |
| 1788580200 | 13.33° C | 87% | 1016.9 hPa | - | - | - | - |
| 1788579600 | 13.33° C | 87% | 1016.9 hPa | - | - | - | - |
| 1788579000 | 13.33° C | 87% | 1016.9 hPa | - | - | - | - |
| 1788578400 | 13.33° C | 87% | 1016.8 hPa | - | - | - | - |
| 1788577800 | 13.89° C | 87% | 1016.7 hPa | - | - | - | - |
| 1788577200 | 13.89° C | 87% | 1016.7 hPa | - | - | - | - |
| 1788576600 | 13.89° C | 86% | 1016.5 hPa | - | - | - | - |
| 1788576000 | 13.89° C | 86% | 1016.4 hPa | - | - | - | - |
| 1788575400 | 14.44° C | 86% | 1016.2 hPa | - | - | - | - |
| 1788574800 | 14.44° C | 86% | 1016.2 hPa | - | - | - | - |
| 1788574200 | 14.44° C | 86% | 1016.2 hPa | - | - | - | - |
* Rain since midnight (hover to see other rain measurements)
** Current wind speed in m/s (hover to see current wind gust speed)